createdAt,value
2019-04-22T00:02:17.476Z,95203.70
2019-04-22T00:05:01.129Z,95200.26
2019-04-22T00:07:46.317Z,95197.28
2019-04-22T00:10:19.359Z,95194.74
2019-04-22T00:12:47.068Z,95193.84
2019-04-22T00:15:10.013Z,95195.80
2019-04-22T00:17:53.363Z,95187.97
2019-04-22T00:20:39.219Z,95180.82
2019-04-22T00:22:52.042Z,95186.91
2019-04-22T00:25:46.038Z,95183.75
2019-04-22T00:27:56.420Z,95180.83
2019-04-22T00:30:22.480Z,95177.55
2019-04-22T00:33:24.544Z,95182.09
2019-04-22T00:35:54.900Z,95180.47
2019-04-22T00:41:02.449Z,95163.75
2019-04-22T00:43:24.246Z,95160.30
2019-04-22T00:45:56.275Z,95165.88
2019-04-22T00:48:51.192Z,95160.63
2019-04-22T00:51:06.054Z,95160.27
2019-04-22T00:53:35.806Z,95160.56
2019-04-22T00:58:39.699Z,95152.87
2019-04-22T01:01:14.292Z,95154.77
2019-04-22T01:06:17.343Z,95143.06
2019-04-22T01:08:52.971Z,95141.41
2019-04-22T01:11:19.077Z,95144.02
2019-04-22T01:13:44.205Z,95137.47
2019-04-22T01:16:20.472Z,95140.26
2019-04-22T01:18:49.217Z,95135.63
2019-04-22T01:21:24.391Z,95131.94
2019-04-22T01:23:47.632Z,95132.20
2019-04-22T01:26:15.681Z,95128.93
2019-04-22T01:28:46.382Z,95127.62
2019-04-22T01:31:10.254Z,95129.91
2019-04-22T01:33:41.089Z,95123.75
2019-04-22T01:36:25.850Z,95130.81
2019-04-22T01:38:58.322Z,95124.30
2019-04-22T01:41:42.288Z,95128.02
2019-04-22T01:44:18.554Z,95121.48
2019-04-22T01:46:39.291Z,95117.56
2019-04-22T01:49:08.500Z,95112.05
2019-04-22T01:51:45.277Z,95106.34
2019-04-22T01:54:14.856Z,95106.47
2019-04-22T01:56:41.136Z,95101.97
2019-04-22T01:59:05.108Z,95107.22
2019-04-22T02:01:43.603Z,95099.00
2019-04-22T02:04:17.594Z,95089.56
2019-04-22T02:34:06.940Z,95066.12
2019-04-22T02:36:29.472Z,95064.09
2019-04-22T02:56:28.488Z,95035.64
2019-04-22T03:16:32.040Z,95032.06
2019-04-22T03:19:02.489Z,95025.36
2019-04-22T03:24:17.498Z,95015.66
2019-04-22T03:26:48.992Z,95014.13
2019-04-22T03:37:27.434Z,95010.65
2019-04-22T03:49:55.891Z,95009.13
2019-04-22T03:52:10.680Z,95006.65
2019-04-22T03:54:46.276Z,95005.12
2019-04-22T04:02:13.457Z,94991.62
2019-04-22T04:07:26.917Z,94991.50
2019-04-22T04:09:44.327Z,94989.69
2019-04-22T04:15:23.662Z,94987.45
2019-04-22T04:22:30.440Z,94984.69
2019-04-22T04:25:17.195Z,94993.20
2019-04-22T04:27:42.783Z,94993.58
2019-04-22T04:30:14.836Z,94993.87
2019-04-22T04:37:42.259Z,94982.88
2019-04-22T04:40:05.160Z,94985.64
2019-04-22T04:47:42.869Z,94984.75
2019-04-22T04:50:12.215Z,94980.64
2019-04-22T04:52:52.460Z,94987.55
2019-04-22T04:55:11.894Z,94987.38
2019-04-22T05:02:44.886Z,94984.08
2019-04-22T05:15:13.363Z,94987.22
2019-04-22T05:20:24.109Z,94991.08
2019-04-22T05:22:43.137Z,94992.44
2019-04-22T05:25:11.755Z,94988.84
2019-04-22T05:27:39.750Z,94985.30
2019-04-22T05:32:44.555Z,94984.81
2019-04-22T05:35:23.000Z,94984.67
2019-04-22T05:42:46.165Z,94972.11
2019-04-22T05:45:14.750Z,94972.44
2019-04-22T05:47:50.512Z,94970.17
2019-04-22T05:50:18.936Z,94966.62
2019-04-22T05:52:51.548Z,94968.41
2019-04-22T05:55:33.270Z,94964.70
2019-04-22T05:57:57.829Z,94962.45
2019-04-22T06:03:07.207Z,94957.64
2019-04-22T06:05:32.055Z,94959.81
2019-04-22T06:08:02.336Z,94963.73
2019-04-22T06:13:00.889Z,94959.02
2019-04-22T06:15:36.365Z,94955.30
2019-04-22T06:20:45.493Z,94946.83
2019-04-22T06:23:15.282Z,94942.58
2019-04-22T06:28:26.605Z,94943.22
2019-04-22T06:30:53.358Z,94943.71
2019-04-22T06:33:14.986Z,94944.70
2019-04-22T06:40:48.242Z,94940.28
2019-04-22T06:43:38.180Z,94930.78
2019-04-22T06:45:44.962Z,94932.91
2019-04-22T06:48:23.690Z,94932.40
2019-04-22T06:50:52.944Z,94934.81
2019-04-22T06:53:25.037Z,94938.39
2019-04-22T06:55:51.383Z,94938.55
2019-04-22T06:58:20.225Z,94932.75
2019-04-22T07:00:55.096Z,94938.71
2019-04-22T07:06:03.996Z,94921.66
2019-04-22T07:09:01.301Z,94922.08
2019-04-22T07:10:56.308Z,94917.06
2019-04-22T07:16:18.597Z,94907.05
2019-04-22T07:18:37.278Z,94901.09
2019-04-22T07:21:06.638Z,94903.17
2019-04-22T07:26:04.245Z,94895.48
2019-04-22T07:28:29.189Z,94889.16
2019-04-22T07:31:10.300Z,94886.53
2019-04-22T07:33:42.412Z,94888.09
2019-04-22T07:38:35.959Z,94875.84
2019-04-22T07:41:28.677Z,94878.78
2019-04-22T07:44:02.980Z,94872.86
2019-04-22T07:46:14.829Z,94868.09
2019-04-22T07:48:45.319Z,94864.31
2019-04-22T07:53:52.175Z,94855.98
2019-04-22T07:56:19.067Z,94857.13
2019-04-22T07:58:50.420Z,94851.05
2019-04-22T08:01:20.212Z,94853.38
2019-04-22T08:04:00.179Z,94848.67
2019-04-22T08:06:26.393Z,94843.66
2019-04-22T08:08:56.604Z,94840.52
2019-04-22T08:11:37.517Z,94832.56
2019-04-22T08:13:56.332Z,94833.83
2019-04-22T08:16:23.395Z,94821.54
2019-04-22T08:19:03.119Z,94822.80
2019-04-22T08:21:29.990Z,94828.98
2019-04-22T08:24:01.379Z,94821.39
2019-04-22T08:26:33.264Z,94823.44
2019-04-22T08:29:11.520Z,94825.09
2019-04-22T08:31:36.949Z,94815.59
2019-04-22T08:36:41.033Z,94811.19
2019-04-22T08:39:07.972Z,94806.06
2019-04-22T08:44:28.027Z,94801.61
2019-04-22T08:46:40.387Z,94800.68
2019-04-22T08:49:10.193Z,94797.82
2019-04-22T08:51:49.057Z,94796.39
2019-04-22T08:54:13.680Z,94801.48
2019-04-22T08:59:12.078Z,94788.58
2019-04-22T09:01:44.941Z,94787.56
2019-04-22T09:04:13.313Z,94775.86
2019-04-22T09:07:12.449Z,94782.25
2019-04-22T09:09:19.589Z,94780.61
2019-04-22T09:11:58.054Z,94770.95
2019-04-22T09:14:24.210Z,94773.56
2019-04-22T09:17:08.894Z,94763.22
2019-04-22T09:19:30.028Z,94766.59
2019-04-22T09:22:05.293Z,94762.63
2019-04-22T09:24:38.728Z,94756.53
2019-04-22T09:27:04.054Z,94760.28
2019-04-22T09:29:40.002Z,94755.38
2019-04-22T09:34:40.233Z,94749.67
2019-04-22T09:37:21.102Z,94744.56
2019-04-22T09:39:41.285Z,94743.71
2019-04-22T09:42:09.117Z,94730.14
2019-04-22T09:44:40.348Z,94734.92
2019-04-22T09:47:11.614Z,94727.84
2019-04-22T09:49:53.178Z,94733.30
2019-04-22T09:52:14.944Z,94725.70
2019-04-22T09:55:12.966Z,94729.86
2019-04-22T09:57:33.901Z,94719.59
2019-04-22T10:00:10.906Z,94719.06
2019-04-22T10:02:42.803Z,94716.16
2019-04-22T10:05:17.333Z,94705.92
2019-04-22T10:07:39.162Z,94713.64
2019-04-22T10:10:17.105Z,94705.81
2019-04-22T10:12:57.816Z,94699.81
2019-04-22T10:15:16.373Z,94697.20
2019-04-22T10:17:41.789Z,94697.88
2019-04-22T10:20:17.867Z,94695.23
2019-04-22T10:22:54.750Z,94690.47
2019-04-22T10:25:16.718Z,94687.56
2019-04-22T10:27:53.621Z,94686.88
2019-04-22T10:30:31.880Z,94683.17
2019-04-22T10:32:47.970Z,94674.56
2019-04-22T10:37:42.567Z,94673.97
2019-04-22T10:40:52.547Z,94665.30
2019-04-22T10:43:23.254Z,94671.73
2019-04-22T10:45:54.503Z,94658.12
2019-04-22T10:48:26.202Z,94659.39
2019-04-22T10:50:56.793Z,94654.97
2019-04-22T10:53:26.858Z,94645.14
2019-04-22T10:55:56.432Z,94642.37
2019-04-22T10:58:28.760Z,94637.73
2019-04-22T11:01:00.037Z,94625.41
2019-04-22T11:03:30.962Z,94630.86
2019-04-22T11:06:01.281Z,94623.25
2019-04-22T11:08:38.518Z,94617.51
2019-04-22T11:11:15.109Z,94615.56
2019-04-22T11:13:33.821Z,94606.67
2019-04-22T11:16:05.468Z,94606.88
2019-04-22T11:18:36.086Z,94599.55
2019-04-22T11:21:05.499Z,94604.39
2019-04-22T11:23:34.756Z,94593.11
2019-04-22T11:31:48.231Z,94587.52
2019-04-22T11:34:19.277Z,94584.58
2019-04-22T11:36:50.395Z,94573.71
2019-04-22T11:39:21.682Z,94576.87
2019-04-22T11:41:51.929Z,94577.45
2019-04-22T11:44:23.462Z,94570.33
2019-04-22T11:46:53.603Z,94567.60
2019-04-22T11:49:24.006Z,94558.02
2019-04-22T11:51:54.218Z,94560.47
2019-04-22T11:56:59.243Z,94545.66
2019-04-22T11:59:29.030Z,94545.66
2019-04-22T12:02:00.577Z,94547.42
2019-04-22T12:04:32.065Z,94546.91
2019-04-22T12:07:02.163Z,94547.27
2019-04-22T12:09:33.348Z,94534.48
2019-04-22T12:14:40.466Z,94532.34
2019-04-22T12:17:11.141Z,94528.87
2019-04-22T12:19:42.032Z,94531.09
2019-04-22T12:22:13.197Z,94528.28
2019-04-22T12:25:36.108Z,94528.01
2019-04-22T12:27:54.958Z,94525.71
2019-04-22T12:33:34.982Z,94506.00
2019-04-22T12:36:06.412Z,94502.38
2019-04-22T12:38:37.667Z,94498.06
2019-04-22T12:41:10.387Z,94495.77
2019-04-22T12:43:38.721Z,94496.66
2019-04-22T12:46:10.053Z,94480.36
2019-04-22T12:48:41.136Z,94486.73
2019-04-22T12:51:11.109Z,94480.43
2019-04-22T12:53:40.346Z,94476.19
2019-04-22T12:56:09.545Z,94470.39
2019-04-22T12:58:38.799Z,94465.95
2019-04-22T13:01:48.930Z,94458.46
2019-04-22T13:04:21.221Z,94456.16
2019-04-22T13:06:49.955Z,94441.73
2019-04-22T13:09:21.231Z,94446.64
2019-04-22T13:11:51.106Z,94438.44
2019-04-22T13:14:21.176Z,94433.64
2019-04-22T13:16:51.361Z,94429.58
2019-04-22T13:19:21.462Z,94427.17
2019-04-22T13:21:51.532Z,94421.20
2019-04-22T13:24:21.779Z,94418.41
2019-04-22T13:26:53.007Z,94411.95
2019-04-22T13:29:25.125Z,94408.88
2019-04-22T13:31:55.114Z,94410.14
2019-04-22T13:34:33.708Z,94408.88
2019-04-22T13:36:56.780Z,94402.11
2019-04-22T13:39:27.119Z,94405.87
2019-04-22T13:42:02.260Z,94402.76
2019-04-22T13:44:28.239Z,94401.81
2019-04-22T13:47:14.770Z,94394.62
2019-04-22T13:50:17.720Z,94383.03
2019-04-22T13:52:45.131Z,94390.20
2019-04-22T13:54:57.423Z,94381.03
2019-04-22T13:57:42.582Z,94388.80
2019-04-22T13:59:57.636Z,94391.98
2019-04-22T14:02:42.576Z,94385.56
2019-04-22T14:08:23.029Z,94381.63
2019-04-22T14:10:52.600Z,94371.02
2019-04-22T14:13:21.864Z,94373.12
2019-04-22T14:15:51.136Z,94363.45
2019-04-22T14:18:21.087Z,94362.03
2019-04-22T14:20:51.304Z,94357.59
2019-04-22T14:23:22.451Z,94357.55
2019-04-22T14:25:52.812Z,94362.72
2019-04-22T14:28:24.785Z,94351.08
2019-04-22T14:33:30.131Z,94344.01
2019-04-22T14:36:00.567Z,94346.20
2019-04-22T14:38:32.273Z,94338.76
2019-04-22T14:41:02.535Z,94336.39
2019-04-22T14:44:00.052Z,94338.92
2019-04-22T14:46:26.405Z,94329.81
2019-04-22T14:48:57.330Z,94332.20
2019-04-22T14:51:20.547Z,94322.91
2019-04-22T14:53:56.130Z,94328.75
2019-04-22T14:56:08.468Z,94316.70
2019-04-22T14:58:38.592Z,94323.50
2019-04-22T15:03:48.186Z,94311.69
2019-04-22T15:06:15.843Z,94314.77
2019-04-22T15:08:47.000Z,94309.57
2019-04-22T15:12:08.740Z,94301.16
2019-04-22T15:14:27.795Z,94296.25
2019-04-22T15:17:16.595Z,94292.89
2019-04-22T15:19:52.009Z,94290.86
2019-04-22T15:22:21.279Z,94286.64
2019-04-22T15:24:52.319Z,94286.45
2019-04-22T15:27:22.588Z,94286.05
2019-04-22T15:29:53.771Z,94280.17
2019-04-22T15:32:25.188Z,94281.84
2019-04-22T15:34:55.363Z,94277.80
2019-04-22T15:37:26.398Z,94276.72
2019-04-22T15:42:36.159Z,94275.80
2019-04-22T15:45:03.218Z,94268.52
2019-04-22T15:47:34.690Z,94270.02
2019-04-22T15:50:05.954Z,94255.83
2019-04-22T15:52:42.047Z,94256.40
2019-04-22T15:55:06.833Z,94256.19
2019-04-22T15:57:38.042Z,94256.00
2019-04-22T16:00:21.361Z,94248.66
2019-04-22T16:02:39.434Z,94246.61
2019-04-22T16:05:10.618Z,94249.20
2019-04-22T16:07:42.063Z,94254.67
2019-04-22T16:10:12.276Z,94253.75
2019-04-22T16:12:52.991Z,94254.44
2019-04-22T16:18:22.552Z,94253.48
2019-04-22T16:20:54.285Z,94245.94
2019-04-22T16:23:44.508Z,94248.83
2019-04-22T16:26:32.843Z,94247.99
2019-04-22T16:29:03.334Z,94250.34
2019-04-22T16:31:33.636Z,94256.97
2019-04-22T16:34:04.585Z,94255.97
2019-04-22T16:36:36.413Z,94254.75
2019-04-22T16:39:48.588Z,94255.27
2019-04-22T16:42:28.913Z,94251.51
2019-04-22T16:44:49.421Z,94243.96
2019-04-22T16:47:19.792Z,94247.83
2019-04-22T16:49:49.859Z,94244.31
2019-04-22T16:52:19.046Z,94245.85
2019-04-22T16:54:48.314Z,94240.45
2019-04-22T17:00:27.016Z,94244.98
2019-04-22T17:03:16.527Z,94239.91
2019-04-22T17:06:05.419Z,94250.75
2019-04-22T17:08:36.987Z,94249.16
2019-04-22T17:11:07.523Z,94253.42
2019-04-22T17:13:38.525Z,94254.94
2019-04-22T17:16:09.960Z,94247.11
2019-04-22T17:18:41.302Z,94249.78
2019-04-22T17:21:12.964Z,94248.64
2019-04-22T17:23:43.478Z,94253.51
2019-04-22T17:26:14.712Z,94254.67
2019-04-22T17:28:45.858Z,94249.95
2019-04-22T17:31:16.484Z,94248.22
2019-04-22T17:33:46.846Z,94249.11
2019-04-22T17:36:16.443Z,94248.07
2019-04-22T17:38:56.276Z,94250.14
2019-04-22T17:41:28.279Z,94248.53
2019-04-22T17:44:13.112Z,94257.48
2019-04-22T17:52:23.175Z,94254.83
2019-04-22T17:55:38.468Z,94256.30
2019-04-22T17:57:59.598Z,94252.03
2019-04-22T18:01:12.290Z,94248.05
2019-04-22T18:03:31.108Z,94240.91
2019-04-22T18:05:59.415Z,94246.19
2019-04-22T18:08:40.776Z,94245.18
2019-04-22T18:11:24.387Z,94243.43
2019-04-22T18:13:52.183Z,94238.57
2019-04-22T18:16:17.864Z,94237.95
2019-04-22T18:18:49.653Z,94230.47
2019-04-22T18:21:13.089Z,94238.70
2019-04-22T18:23:39.978Z,94229.48
2019-04-22T18:26:20.352Z,94228.91
2019-04-22T18:28:54.158Z,94230.66
2019-04-22T18:31:17.438Z,94227.77
2019-04-22T18:33:51.595Z,94231.14
2019-04-22T18:36:27.500Z,94228.14
2019-04-22T18:38:58.356Z,94233.09
2019-04-22T18:41:23.654Z,94243.95
2019-04-22T18:44:01.783Z,94241.53
2019-04-22T18:46:26.932Z,94247.64
2019-04-22T18:49:01.704Z,94247.20
2019-04-22T18:56:59.506Z,94254.73
2019-04-22T18:59:17.445Z,94248.23
2019-04-22T19:01:41.823Z,94248.45
2019-04-22T19:04:19.493Z,94246.45
2019-04-22T19:07:01.800Z,94261.64
2019-04-22T19:09:41.457Z,94250.56
2019-04-22T19:14:45.447Z,94255.91
2019-04-22T19:17:17.006Z,94253.25
2019-04-22T19:19:43.611Z,94248.66
2019-04-22T19:22:19.529Z,94243.89
2019-04-22T19:24:41.773Z,94243.52
2019-04-22T19:27:16.222Z,94242.51
2019-04-22T19:29:52.636Z,94242.85
2019-04-22T19:32:19.458Z,94243.07
2019-04-22T19:34:48.178Z,94240.37
2019-04-22T19:37:19.161Z,94238.26
2019-04-22T19:40:00.919Z,94237.78
2019-04-22T19:42:30.532Z,94242.23
2019-04-22T19:47:30.390Z,94234.81
2019-04-22T19:50:05.577Z,94238.86
2019-04-22T19:52:38.658Z,94243.14
2019-04-22T19:55:01.450Z,94234.92
2019-04-22T19:57:31.364Z,94234.81
2019-04-22T20:03:13.234Z,94226.04
2019-04-22T20:06:16.066Z,94231.36
2019-04-22T20:08:42.625Z,94220.35
2019-04-22T20:11:19.606Z,94222.38
2019-04-22T20:13:49.249Z,94222.47
2019-04-22T20:16:06.147Z,94211.83
2019-04-22T20:18:51.837Z,94215.28
2019-04-22T20:21:22.364Z,94211.84
2019-04-22T20:23:44.547Z,94203.84
2019-04-22T20:26:16.154Z,94203.27
2019-04-22T20:28:52.487Z,94199.31
2019-04-22T20:31:26.609Z,94202.17
2019-04-22T20:34:04.668Z,94193.23
2019-04-22T20:36:50.249Z,94187.88
2019-04-22T20:38:53.639Z,94184.25
2019-04-22T20:41:26.529Z,94184.16
2019-04-22T20:44:05.164Z,94181.12
2019-04-22T20:46:29.803Z,94185.36
2019-04-22T20:49:02.646Z,94184.05
2019-04-22T20:51:43.764Z,94180.10
2019-04-22T20:54:09.043Z,94183.05
2019-04-22T20:56:35.637Z,94178.39
2019-04-22T20:59:10.216Z,94174.02
2019-04-22T21:01:39.984Z,94173.73
2019-04-22T21:03:55.474Z,94173.13
2019-04-22T21:06:36.914Z,94174.73
2019-04-22T21:09:12.150Z,94169.19
2019-04-22T21:11:38.436Z,94170.68
2019-04-22T21:14:12.261Z,94168.33
2019-04-22T21:16:48.201Z,94160.72
2019-04-22T21:19:22.056Z,94163.78
2019-04-22T21:21:54.667Z,94158.90
2019-04-22T21:24:09.390Z,94155.87
2019-04-22T21:26:43.759Z,94145.53
2019-04-22T21:29:17.294Z,94150.17
2019-04-22T21:31:53.313Z,94146.83
2019-04-22T21:34:20.543Z,94149.77
2019-04-22T21:36:57.497Z,94147.63
2019-04-22T21:39:37.497Z,94139.77
2019-04-22T21:42:11.830Z,94139.77
2019-04-22T21:44:38.340Z,94138.05
2019-04-22T21:47:25.690Z,94133.20
2019-04-22T21:49:51.422Z,94133.52
2019-04-22T21:52:16.928Z,94126.84
2019-04-22T21:55:13.121Z,94117.14
2019-04-22T21:58:04.843Z,94117.14
2019-04-22T22:01:21.885Z,94105.59
2019-04-22T22:04:03.539Z,94106.69
2019-04-22T22:06:24.922Z,94106.69
2019-04-22T22:09:01.021Z,94109.44
2019-04-22T22:11:27.691Z,94106.61
2019-04-22T22:14:04.145Z,94102.34
2019-04-22T22:16:38.864Z,94094.66
2019-04-22T22:19:20.907Z,94094.66
2019-04-22T22:22:25.427Z,94093.80
2019-04-22T22:24:38.620Z,94093.80
2019-04-22T22:27:12.710Z,94094.70
2019-04-22T22:29:55.878Z,94097.27
2019-04-22T22:32:11.821Z,94086.44
2019-04-22T22:34:43.429Z,94089.45
2019-04-22T22:37:06.437Z,94083.30
2019-04-22T22:39:38.112Z,94082.88
2019-04-22T22:41:55.230Z,94075.53
2019-04-22T22:44:32.337Z,94079.89
2019-04-22T22:47:16.314Z,94070.89
2019-04-22T22:49:46.989Z,94071.41
2019-04-22T22:54:55.678Z,94063.33
2019-04-22T22:57:30.201Z,94058.05
2019-04-22T22:59:53.095Z,94054.34
2019-04-22T23:02:22.520Z,94064.41
2019-04-22T23:04:54.644Z,94056.35
2019-04-22T23:07:33.417Z,94053.12
2019-04-22T23:09:53.684Z,94052.64
2019-04-22T23:12:34.687Z,94051.62
2019-04-22T23:14:54.595Z,94052.03
2019-04-22T23:17:14.569Z,94047.60
2019-04-22T23:19:44.754Z,94038.91
2019-04-22T23:22:17.883Z,94034.88
2019-04-22T23:25:25.076Z,94031.02
2019-04-22T23:28:03.984Z,94031.13
2019-04-22T23:30:45.759Z,94017.49
2019-04-22T23:36:19.440Z,94012.28
2019-04-22T23:38:59.230Z,94014.09
2019-04-22T23:42:04.792Z,94011.64
2019-04-22T23:44:20.610Z,94010.11
2019-04-22T23:47:06.056Z,94008.16
2019-04-22T23:49:32.674Z,94006.41
2019-04-22T23:52:13.058Z,94002.16
2019-04-22T23:55:02.057Z,93991.34
2019-04-22T23:57:33.366Z,93995.59
